Terminal Aerodrome Forecast
Issued by NWS Cleveland, OH

Home | Current Version | Previous Version | Text Only | Print | Product List | Glossary Off
Versions: 1 2 3 4 5 6 7 8 9 10 11 12 13 14 15 16 17 18 19 20 21 22

000
FTUS41 KCLE 302108 AAA
TAFTOL
TAF AMD
KTOL 302108Z 3021/0118 08010KT 4SM -RA OVC015
      TEMPO 3021/3024 3SM RA BR OVC008
     FM010100 08008KT 3SM RA BR OVC008
     FM010700 04006KT 3SM -RA BR OVC004
     FM011200 01004KT 6SM BR OVC010=

USA.gov is the U.S. government's official web portal to all federal, state and local government web resources and services.